Observations for EAST MIDLANDS, United Kingdom (EGNX)

EGNX 190320Z 19012KT 9999 FEW013 15/14 Q1008
EGNX 190250Z 20012KT 9999 FEW012 16/14 Q1008
EGNX 190220Z 21012KT 9999 SCT013 16/14 Q1009
EGNX 190150Z 21011KT 9999 FEW015 16/14 Q1009
EGNX 190120Z 20014KT 9999 FEW026 17/14 Q1008
EGNX 190050Z 20016KT 9999 FEW023 SCT032 17/14 Q1008 
EGNX 190020Z 20016KT 9999 FEW027 SCT033 18/14 Q1008 
EGNX 182350Z 21015KT 9999 SCT025 17/14 Q1008
EGNX 182320Z 21014KT 9999 SCT026 17/14 Q1008
EGNX 182250Z 21016KT 9999 FEW012 SCT039 17/14 Q1008 
EGNX 182220Z 21020KT 9999 FEW011 SCT025 BKN044 17/14 Q1008 RESHRA   
EGNX 182150Z 21022KT 9999 SCT026 18/14 Q1008
EGNX 182120Z 20018KT 9999 SCT022 18/14 Q1007
EGNX 182050Z 19019KT 9999 FEW026 SCT030 18/14 Q1007 
EGNX 182020Z 20018KT 9999 SCT024 BKN040 18/14 Q1007 
EGNX 181950Z 19011KT 9999 SCT023 BKN038 18/14 Q1007 
EGNX 181920Z 20015KT 9999 FEW032 SCT046 18/14 Q1007 
EGNX 181850Z 20015KT 9999 SCT030 18/14 Q1007
EGNX 181820Z 21014KT 9999 SCT033 19/13 Q1007
EGNX 181750Z 21015KT 9999 FEW031 19/13 Q1007
EGNX 181720Z 21014KT 9999 SCT031 BKN047 19/14 Q1007 
EGNX 181650Z 21019KT 9999 SCT031 20/14 Q1007
EGNX 181620Z 21019KT 9999 SCT025 20/14 Q1007
EGNX 181550Z 21018KT 9999 SCT028 20/14 Q1007
EGNX 181520Z 21020KT 9999 BKN029 20/14 Q1007
EGNX 181450Z 21021KT 9999 SCT029 BKN044 20/14 Q1006 
EGNX 181420Z 21020G31KT 9999 SCT031 BKN047 20/13 Q1006  
EGNX 181350Z 23021KT 9999 SCT030 BKN043 21/13 Q1006 
EGNX 181250Z 23024KT 9999 SCT032 20/13 Q1006
EGNX 181220Z 23022KT 9999 SCT034 20/12 Q1005
EGNX 181150Z 24024KT 9999 FEW036 21/12 Q1005
EGNX 181120Z 24024KT 9999 FEW038 20/11 Q1004
EGNX 181050Z 24025G35KT 9999 SCT020 20/11 Q1004 
EGNX 181020Z 22021G33KT 9999 BKN019 20/14 Q1003 
EGNX 180950Z 21019KT 9999 BKN017 18/15 Q1003
EGNX 180920Z 21022KT 9999 BKN017 18/14 Q1002
EGNX 180850Z 20024KT 9999 SCT013 18/15 Q1001
EGNX 180820Z 20024KT 9999 SCT013 17/15 Q1001
EGNX 180750Z 20022KT 8000 -SHRA SCT013 BKN020 17/15 Q1001   
EGNX 180720Z 21022G32KT 9999 BKN015 18/15 Q1000 
EGNX 180650Z 20019KT 9999 BKN017 18/15 Q1000
EGNX 180620Z 19020KT 9999 -RA OVC017 18/15 Q0999
EGNX 180550Z 19018KT 9999 BKN019 18/15 Q0999
EGNX 180520Z 19019KT 9999 -RA BKN020 19/16 Q0999
EGNX 180450Z 18019KT 9999 -RA BKN019 19/15 Q0999
EGNX 180420Z 17016KT 9999 BKN021 18/15 Q0999
EGNX 180350Z 17017KT 150V210 9999 BKN021 17/15 Q1000
EGNX 180320Z 17015KT 9999 SCT021 17/14 Q1000
EGNX 180250Z 17013KT 9999 FEW030 16/13 Q1001